sensor_id;sensor_type;location;lat;lon;timestamp;P1;durP1;ratioP1;P2;durP2;ratioP2
11761;SDS011;5938;47.098;15.474;2022-09-01T00:01:35;19.90;;;17.63;;
11761;SDS011;5938;47.098;15.474;2022-09-01T00:05:41;18.80;;;16.87;;
11761;SDS011;5938;47.098;15.474;2022-09-01T00:09:46;17.87;;;16.07;;
11761;SDS011;5938;47.098;15.474;2022-09-01T00:13:50;19.07;;;15.57;;
11761;SDS011;5938;47.098;15.474;2022-09-01T00:17:55;19.47;;;17.57;;
11761;SDS011;5938;47.098;15.474;2022-09-01T00:21:59;19.13;;;17.23;;
11761;SDS011;5938;47.098;15.474;2022-09-01T00:26:03;18.03;;;16.17;;
11761;SDS011;5938;47.098;15.474;2022-09-01T00:30:07;17.23;;;15.60;;
11761;SDS011;5938;47.098;15.474;2022-09-01T00:34:12;18.03;;;16.23;;
11761;SDS011;5938;47.098;15.474;2022-09-01T00:38:17;17.73;;;15.90;;
11761;SDS011;5938;47.098;15.474;2022-09-01T00:42:20;17.40;;;15.70;;
11761;SDS011;5938;47.098;15.474;2022-09-01T00:46:26;17.17;;;14.87;;
11761;SDS011;5938;47.098;15.474;2022-09-01T00:50:32;18.20;;;16.13;;
11761;SDS011;5938;47.098;15.474;2022-09-01T00:54:36;16.10;;;14.50;;
11761;SDS011;5938;47.098;15.474;2022-09-01T00:58:45;15.70;;;14.30;;
11761;SDS011;5938;47.098;15.474;2022-09-01T01:02:48;16.87;;;14.83;;
11761;SDS011;5938;47.098;15.474;2022-09-01T01:06:59;15.40;;;13.90;;
11761;SDS011;5938;47.098;15.474;2022-09-01T01:11:04;15.77;;;14.27;;
11761;SDS011;5938;47.098;15.474;2022-09-01T01:15:10;13.03;;;11.73;;
11761;SDS011;5938;47.098;15.474;2022-09-01T01:19:15;16.87;;;15.10;;
11761;SDS011;5938;47.098;15.474;2022-09-01T01:23:42;25.30;;;15.40;;
11761;SDS011;5938;47.098;15.474;2022-09-01T01:27:54;16.33;;;14.80;;
11761;SDS011;5938;47.098;15.474;2022-09-01T01:32:06;15.17;;;13.67;;
11761;SDS011;5938;47.098;15.474;2022-09-01T01:36:18;17.17;;;15.53;;
11761;SDS011;5938;47.098;15.474;2022-09-01T01:40:32;20.70;;;13.63;;
11761;SDS011;5938;47.098;15.474;2022-09-01T01:44:38;15.47;;;14.00;;
11761;SDS011;5938;47.098;15.474;2022-09-01T01:48:43;15.33;;;13.83;;
11761;SDS011;5938;47.098;15.474;2022-09-01T01:52:47;16.33;;;14.73;;
11761;SDS011;5938;47.098;15.474;2022-09-01T01:56:59;15.60;;;14.10;;
11761;SDS011;5938;47.098;15.474;2022-09-01T02:01:06;15.20;;;13.60;;
11761;SDS011;5938;47.098;15.474;2022-09-01T02:05:11;14.50;;;13.10;;
11761;SDS011;5938;47.098;15.474;2022-09-01T02:09:19;14.97;;;13.50;;
11761;SDS011;5938;47.098;15.474;2022-09-01T02:13:23;15.83;;;14.33;;
11761;SDS011;5938;47.098;15.474;2022-09-01T02:17:33;17.20;;;15.40;;
11761;SDS011;5938;47.098;15.474;2022-09-01T02:21:36;17.37;;;15.77;;
11761;SDS011;5938;47.098;15.474;2022-09-01T02:25:51;16.10;;;12.90;;
11761;SDS011;5938;47.098;15.474;2022-09-01T02:30:16;17.70;;;16.00;;
11761;SDS011;5938;47.098;15.474;2022-09-01T02:34:21;14.80;;;13.30;;
11761;SDS011;5938;47.098;15.474;2022-09-01T02:38:28;16.53;;;14.77;;
11761;SDS011;5938;47.098;15.474;2022-09-01T02:42:34;15.77;;;14.07;;
11761;SDS011;5938;47.098;15.474;2022-09-01T02:46:41;17.07;;;15.27;;
11761;SDS011;5938;47.098;15.474;2022-09-01T02:50:47;19.30;;;15.20;;
11761;SDS011;5938;47.098;15.474;2022-09-01T02:54:51;15.13;;;13.63;;
11761;SDS011;5938;47.098;15.474;2022-09-01T02:58:55;16.43;;;14.57;;
11761;SDS011;5938;47.098;15.474;2022-09-01T03:03:01;16.10;;;14.60;;
11761;SDS011;5938;47.098;15.474;2022-09-01T03:07:07;17.30;;;15.50;;
11761;SDS011;5938;47.098;15.474;2022-09-01T03:11:11;18.17;;;16.37;;
11761;SDS011;5938;47.098;15.474;2022-09-01T03:15:14;17.30;;;15.60;;
11761;SDS011;5938;47.098;15.474;2022-09-01T03:19:18;17.53;;;15.73;;
11761;SDS011;5938;47.098;15.474;2022-09-01T03:23:23;16.97;;;15.30;;
11761;SDS011;5938;47.098;15.474;2022-09-01T03:27:28;19.07;;;17.07;;
11761;SDS011;5938;47.098;15.474;2022-09-01T03:31:32;19.27;;;16.97;;
11761;SDS011;5938;47.098;15.474;2022-09-01T03:35:36;16.53;;;14.83;;
11761;SDS011;5938;47.098;15.474;2022-09-01T03:39:41;15.67;;;14.07;;
11761;SDS011;5938;47.098;15.474;2022-09-01T03:43:44;16.63;;;14.80;;
11761;SDS011;5938;47.098;15.474;2022-09-01T03:47:49;17.17;;;15.50;;
11761;SDS011;5938;47.098;15.474;2022-09-01T03:51:53;17.77;;;14.20;;
11761;SDS011;5938;47.098;15.474;2022-09-01T03:55:59;16.57;;;13.83;;
11761;SDS011;5938;47.098;15.474;2022-09-01T04:00:05;13.77;;;12.50;;
11761;SDS011;5938;47.098;15.474;2022-09-01T04:04:17;11.40;;;10.40;;
11761;SDS011;5938;47.098;15.474;2022-09-01T04:08:21;16.20;;;12.53;;
11761;SDS011;5938;47.098;15.474;2022-09-01T04:12:34;11.63;;;10.63;;
11761;SDS011;5938;47.098;15.474;2022-09-01T04:16:39;14.13;;;12.90;;
11761;SDS011;5938;47.098;15.474;2022-09-01T04:21:00;12.27;;;11.23;;
11761;SDS011;5938;47.098;15.474;2022-09-01T04:25:03;12.80;;;10.40;;
11761;SDS011;5938;47.098;15.474;2022-09-01T04:29:09;12.30;;;11.13;;
11761;SDS011;5938;47.098;15.474;2022-09-01T04:33:13;17.37;;;14.00;;
11761;SDS011;5938;47.098;15.474;2022-09-01T04:37:19;14.40;;;12.90;;
11761;SDS011;5938;47.098;15.474;2022-09-01T04:41:25;15.03;;;13.00;;
11761;SDS011;5938;47.098;15.474;2022-09-01T04:45:34;14.13;;;12.73;;
11761;SDS011;5938;47.098;15.474;2022-09-01T04:49:41;12.73;;;11.57;;
11761;SDS011;5938;47.098;15.474;2022-09-01T04:53:45;13.07;;;11.87;;
11761;SDS011;5938;47.098;15.474;2022-09-01T04:57:50;12.70;;;11.60;;
11761;SDS011;5938;47.098;15.474;2022-09-01T05:01:55;12.57;;;11.07;;
11761;SDS011;5938;47.098;15.474;2022-09-01T05:06:00;12.80;;;11.67;;
11761;SDS011;5938;47.098;15.474;2022-09-01T05:10:04;13.27;;;12.03;;
11761;SDS011;5938;47.098;15.474;2022-09-01T05:14:08;14.80;;;12.50;;
11761;SDS011;5938;47.098;15.474;2022-09-01T05:18:15;13.10;;;11.60;;
11761;SDS011;5938;47.098;15.474;2022-09-01T05:22:23;14.80;;;13.40;;
11761;SDS011;5938;47.098;15.474;2022-09-01T05:26:28;14.13;;;12.73;;
11761;SDS011;5938;47.098;15.474;2022-09-01T05:30:35;16.63;;;14.50;;
11761;SDS011;5938;47.098;15.474;2022-09-01T05:34:42;16.23;;;14.40;;
11761;SDS011;5938;47.098;15.474;2022-09-01T05:38:46;15.73;;;14.10;;
11761;SDS011;5938;47.098;15.474;2022-09-01T05:42:52;16.13;;;14.67;;
11761;SDS011;5938;47.098;15.474;2022-09-01T05:46:57;14.60;;;13.10;;
11761;SDS011;5938;47.098;15.474;2022-09-01T05:51:03;14.67;;;13.27;;
11761;SDS011;5938;47.098;15.474;2022-09-01T05:55:22;14.40;;;13.03;;
11761;SDS011;5938;47.098;15.474;2022-09-01T05:59:29;15.23;;;13.70;;
11761;SDS011;5938;47.098;15.474;2022-09-01T06:03:33;15.27;;;13.87;;
11761;SDS011;5938;47.098;15.474;2022-09-01T06:07:40;15.23;;;13.90;;
11761;SDS011;5938;47.098;15.474;2022-09-01T06:11:44;16.43;;;14.93;;
11761;SDS011;5938;47.098;15.474;2022-09-01T06:15:48;15.40;;;13.90;;
11761;SDS011;5938;47.098;15.474;2022-09-01T06:19:54;15.73;;;14.23;;
11761;SDS011;5938;47.098;15.474;2022-09-01T06:24:00;15.63;;;13.50;;
11761;SDS011;5938;47.098;15.474;2022-09-01T06:28:07;11.80;;;10.70;;
11761;SDS011;5938;47.098;15.474;2022-09-01T06:32:12;13.07;;;11.43;;
11761;SDS011;5938;47.098;15.474;2022-09-01T06:36:17;10.30;;;9.20;;
11761;SDS011;5938;47.098;15.474;2022-09-01T06:40:23;8.57;;;7.80;;
11761;SDS011;5938;47.098;15.474;2022-09-01T06:44:27;8.70;;;7.90;;
11761;SDS011;5938;47.098;15.474;2022-09-01T06:48:32;7.80;;;7.00;;
11761;SDS011;5938;47.098;15.474;2022-09-01T06:52:36;7.90;;;7.30;;
11761;SDS011;5938;47.098;15.474;2022-09-01T06:57:02;6.80;;;6.30;;
11761;SDS011;5938;47.098;15.474;2022-09-01T07:01:27;6.80;;;6.30;;
11761;SDS011;5938;47.098;15.474;2022-09-01T07:05:31;6.57;;;6.13;;
11761;SDS011;5938;47.098;15.474;2022-09-01T07:09:54;7.87;;;7.20;;
11761;SDS011;5938;47.098;15.474;2022-09-01T07:14:19;7.07;;;6.37;;
11761;SDS011;5938;47.098;15.474;2022-09-01T07:18:24;5.87;;;5.40;;
11761;SDS011;5938;47.098;15.474;2022-09-01T07:22:29;5.93;;;5.33;;
11761;SDS011;5938;47.098;15.474;2022-09-01T07:26:38;5.37;;;4.87;;
11761;SDS011;5938;47.098;15.474;2022-09-01T07:31:04;4.90;;;4.60;;
11761;SDS011;5938;47.098;15.474;2022-09-01T07:35:29;4.17;;;3.77;;
11761;SDS011;5938;47.098;15.474;2022-09-01T07:39:37;7.63;;;5.17;;
11761;SDS011;5938;47.098;15.474;2022-09-01T07:44:02;4.70;;;4.30;;
11761;SDS011;5938;47.098;15.474;2022-09-01T07:48:10;4.43;;;4.13;;
11761;SDS011;5938;47.098;15.474;2022-09-01T07:52:35;4.70;;;4.40;;
11761;SDS011;5938;47.098;15.474;2022-09-01T07:56:43;5.10;;;4.70;;
11761;SDS011;5938;47.098;15.474;2022-09-01T08:00:48;4.73;;;4.20;;
11761;SDS011;5938;47.098;15.474;2022-09-01T08:04:53;4.33;;;4.03;;
11761;SDS011;5938;47.098;15.474;2022-09-01T08:08:57;4.07;;;3.70;;
11761;SDS011;5938;47.098;15.474;2022-09-01T08:13:02;4.10;;;3.80;;
11761;SDS011;5938;47.098;15.474;2022-09-01T08:17:07;7.47;;;4.20;;
11761;SDS011;5938;47.098;15.474;2022-09-01T08:21:32;4.73;;;4.33;;
11761;SDS011;5938;47.098;15.474;2022-09-01T08:25:35;4.20;;;3.30;;
11761;SDS011;5938;47.098;15.474;2022-09-01T08:29:39;4.47;;;4.07;;
11761;SDS011;5938;47.098;15.474;2022-09-01T08:33:44;4.30;;;4.00;;
11761;SDS011;5938;47.098;15.474;2022-09-01T08:37:50;4.33;;;4.03;;
11761;SDS011;5938;47.098;15.474;2022-09-01T08:41:55;4.00;;;3.70;;
11761;SDS011;5938;47.098;15.474;2022-09-01T08:46:11;3.90;;;3.40;;
11761;SDS011;5938;47.098;15.474;2022-09-01T08:50:18;3.40;;;3.20;;
11761;SDS011;5938;47.098;15.474;2022-09-01T08:54:25;3.20;;;2.90;;
11761;SDS011;5938;47.098;15.474;2022-09-01T08:58:33;3.20;;;3.00;;
11761;SDS011;5938;47.098;15.474;2022-09-01T09:02:44;4.70;;;3.00;;
11761;SDS011;5938;47.098;15.474;2022-09-01T09:07:00;3.37;;;2.87;;
11761;SDS011;5938;47.098;15.474;2022-09-01T09:11:13;4.23;;;3.13;;
11761;SDS011;5938;47.098;15.474;2022-09-01T09:15:25;2.80;;;2.60;;
11761;SDS011;5938;47.098;15.474;2022-09-01T09:19:35;2.80;;;2.10;;
11761;SDS011;5938;47.098;15.474;2022-09-01T09:23:41;2.87;;;2.67;;
11761;SDS011;5938;47.098;15.474;2022-09-01T09:27:49;2.93;;;2.73;;
11761;SDS011;5938;47.098;15.474;2022-09-01T09:32:03;3.20;;;2.90;;
11761;SDS011;5938;47.098;15.474;2022-09-01T09:36:28;2.93;;;2.70;;
11761;SDS011;5938;47.098;15.474;2022-09-01T09:40:34;3.17;;;2.87;;
11761;SDS011;5938;47.098;15.474;2022-09-01T09:44:59;3.40;;;3.10;;
11761;SDS011;5938;47.098;15.474;2022-09-01T09:49:06;4.23;;;2.90;;
11761;SDS011;5938;47.098;15.474;2022-09-01T09:53:17;2.50;;;2.30;;
11761;SDS011;5938;47.098;15.474;2022-09-01T09:57:28;3.07;;;2.77;;
11761;SDS011;5938;47.098;15.474;2022-09-01T10:01:35;3.27;;;2.90;;
11761;SDS011;5938;47.098;15.474;2022-09-01T10:05:41;2.33;;;2.23;;
11761;SDS011;5938;47.098;15.474;2022-09-01T10:09:48;2.33;;;2.13;;
11761;SDS011;5938;47.098;15.474;2022-09-01T10:13:53;2.30;;;2.20;;
11761;SDS011;5938;47.098;15.474;2022-09-01T10:18:01;2.50;;;1.73;;
11761;SDS011;5938;47.098;15.474;2022-09-01T10:22:28;2.77;;;2.17;;
11761;SDS011;5938;47.098;15.474;2022-09-01T10:26:34;2.40;;;1.97;;
11761;SDS011;5938;47.098;15.474;2022-09-01T10:30:40;2.30;;;2.17;;
11761;SDS011;5938;47.098;15.474;2022-09-01T10:34:48;3.97;;;2.40;;
11761;SDS011;5938;47.098;15.474;2022-09-01T10:38:52;3.60;;;2.97;;
11761;SDS011;5938;47.098;15.474;2022-09-01T10:47:38;4.83;;;2.50;;
11761;SDS011;5938;47.098;15.474;2022-09-01T10:51:44;2.40;;;2.20;;
11761;SDS011;5938;47.098;15.474;2022-09-01T10:56:00;2.50;;;2.30;;
11761;SDS011;5938;47.098;15.474;2022-09-01T11:05:09;2.70;;;2.23;;
11761;SDS011;5938;47.098;15.474;2022-09-01T11:09:22;2.60;;;2.10;;
11761;SDS011;5938;47.098;15.474;2022-09-01T11:13:31;2.53;;;2.17;;
11761;SDS011;5938;47.098;15.474;2022-09-01T11:17:38;2.10;;;2.00;;
11761;SDS011;5938;47.098;15.474;2022-09-01T11:22:04;3.67;;;3.17;;
11761;SDS011;5938;47.098;15.474;2022-09-01T11:30:48;4.63;;;4.03;;
11761;SDS011;5938;47.098;15.474;2022-09-01T11:34:56;3.00;;;2.80;;
11761;SDS011;5938;47.098;15.474;2022-09-01T11:39:03;3.43;;;3.13;;
11761;SDS011;5938;47.098;15.474;2022-09-01T11:43:13;4.07;;;3.73;;
11761;SDS011;5938;47.098;15.474;2022-09-01T11:47:20;3.30;;;3.10;;
11761;SDS011;5938;47.098;15.474;2022-09-01T11:51:27;3.47;;;3.23;;
11761;SDS011;5938;47.098;15.474;2022-09-01T11:55:40;4.00;;;3.70;;
11761;SDS011;5938;47.098;15.474;2022-09-01T11:59:48;3.13;;;2.83;;
11761;SDS011;5938;47.098;15.474;2022-09-01T12:03:54;3.27;;;2.77;;
11761;SDS011;5938;47.098;15.474;2022-09-01T12:08:01;3.30;;;3.00;;
11761;SDS011;5938;47.098;15.474;2022-09-01T12:16:34;2.83;;;2.50;;
11761;SDS011;5938;47.098;15.474;2022-09-01T12:20:40;4.33;;;3.20;;
11761;SDS011;5938;47.098;15.474;2022-09-01T12:24:44;3.40;;;3.10;;
11761;SDS011;5938;47.098;15.474;2022-09-01T12:28:49;3.00;;;2.70;;
11761;SDS011;5938;47.098;15.474;2022-09-01T12:32:55;2.83;;;2.50;;
11761;SDS011;5938;47.098;15.474;2022-09-01T12:37:21;3.30;;;3.00;;
11761;SDS011;5938;47.098;15.474;2022-09-01T12:41:27;2.67;;;2.47;;
11761;SDS011;5938;47.098;15.474;2022-09-01T12:45:37;3.10;;;2.90;;
11761;SDS011;5938;47.098;15.474;2022-09-01T12:49:43;2.70;;;2.50;;
11761;SDS011;5938;47.098;15.474;2022-09-01T12:53:53;3.93;;;2.67;;
11761;SDS011;5938;47.098;15.474;2022-09-01T12:58:00;2.40;;;2.20;;
11761;SDS011;5938;47.098;15.474;2022-09-01T13:06:29;2.60;;;2.40;;
11761;SDS011;5938;47.098;15.474;2022-09-01T13:10:34;2.80;;;2.60;;
11761;SDS011;5938;47.098;15.474;2022-09-01T13:14:40;3.13;;;2.90;;
11761;SDS011;5938;47.098;15.474;2022-09-01T13:18:43;4.10;;;2.73;;
11761;SDS011;5938;47.098;15.474;2022-09-01T13:23:08;3.77;;;2.70;;
11761;SDS011;5938;47.098;15.474;2022-09-01T13:27:13;2.53;;;2.37;;
11761;SDS011;5938;47.098;15.474;2022-09-01T13:31:24;2.90;;;2.70;;
11761;SDS011;5938;47.098;15.474;2022-09-01T13:35:30;4.73;;;2.93;;
11761;SDS011;5938;47.098;15.474;2022-09-01T13:39:36;4.00;;;2.60;;
11761;SDS011;5938;47.098;15.474;2022-09-01T13:43:39;2.50;;;2.30;;
11761;SDS011;5938;47.098;15.474;2022-09-01T13:47:43;3.10;;;2.30;;
11761;SDS011;5938;47.098;15.474;2022-09-01T13:52:07;2.40;;;2.20;;
11761;SDS011;5938;47.098;15.474;2022-09-01T13:56:12;2.47;;;2.30;;
11761;SDS011;5938;47.098;15.474;2022-09-01T14:00:17;3.13;;;2.40;;
11761;SDS011;5938;47.098;15.474;2022-09-01T14:04:24;2.70;;;2.50;;
11761;SDS011;5938;47.098;15.474;2022-09-01T14:08:28;8.37;;;2.83;;
11761;SDS011;5938;47.098;15.474;2022-09-01T14:12:35;4.57;;;2.53;;
11761;SDS011;5938;47.098;15.474;2022-09-01T14:16:39;4.97;;;2.43;;
11761;SDS011;5938;47.098;15.474;2022-09-01T14:20:44;4.23;;;2.67;;
11761;SDS011;5938;47.098;15.474;2022-09-01T14:24:49;2.90;;;2.20;;
11761;SDS011;5938;47.098;15.474;2022-09-01T14:28:54;2.47;;;2.27;;
11761;SDS011;5938;47.098;15.474;2022-09-01T14:32:57;2.60;;;2.40;;
11761;SDS011;5938;47.098;15.474;2022-09-01T14:37:02;2.37;;;2.20;;
11761;SDS011;5938;47.098;15.474;2022-09-01T14:41:06;2.23;;;2.10;;
11761;SDS011;5938;47.098;15.474;2022-09-01T14:45:11;2.37;;;2.17;;
11761;SDS011;5938;47.098;15.474;2022-09-01T14:49:16;1.50;;;1.30;;
11761;SDS011;5938;47.098;15.474;2022-09-01T14:53:23;1.90;;;1.63;;
11761;SDS011;5938;47.098;15.474;2022-09-01T14:57:27;2.37;;;2.10;;
11761;SDS011;5938;47.098;15.474;2022-09-01T15:01:39;1.83;;;1.73;;
11761;SDS011;5938;47.098;15.474;2022-09-01T15:05:43;1.73;;;1.43;;
11761;SDS011;5938;47.098;15.474;2022-09-01T15:09:47;2.10;;;1.40;;
11761;SDS011;5938;47.098;15.474;2022-09-01T15:13:50;1.60;;;1.50;;
11761;SDS011;5938;47.098;15.474;2022-09-01T15:17:55;1.73;;;1.63;;
11761;SDS011;5938;47.098;15.474;2022-09-01T15:21:58;2.00;;;1.47;;
11761;SDS011;5938;47.098;15.474;2022-09-01T15:26:02;1.73;;;1.63;;
11761;SDS011;5938;47.098;15.474;2022-09-01T15:30:06;3.33;;;1.27;;
11761;SDS011;5938;47.098;15.474;2022-09-01T15:34:16;1.50;;;1.40;;
11761;SDS011;5938;47.098;15.474;2022-09-01T15:38:20;2.20;;;2.00;;
11761;SDS011;5938;47.098;15.474;2022-09-01T15:42:30;4.10;;;1.60;;
11761;SDS011;5938;47.098;15.474;2022-09-01T15:46:36;2.30;;;1.60;;
11761;SDS011;5938;47.098;15.474;2022-09-01T15:50:43;1.60;;;1.50;;
11761;SDS011;5938;47.098;15.474;2022-09-01T15:54:46;2.27;;;1.60;;
11761;SDS011;5938;47.098;15.474;2022-09-01T15:58:50;2.03;;;1.60;;
11761;SDS011;5938;47.098;15.474;2022-09-01T16:03:02;1.97;;;1.70;;
11761;SDS011;5938;47.098;15.474;2022-09-01T16:07:07;2.40;;;1.47;;
11761;SDS011;5938;47.098;15.474;2022-09-01T16:11:11;1.40;;;1.33;;
11761;SDS011;5938;47.098;15.474;2022-09-01T16:15:15;2.90;;;1.67;;
11761;SDS011;5938;47.098;15.474;2022-09-01T16:19:23;1.73;;;1.60;;
11761;SDS011;5938;47.098;15.474;2022-09-01T16:23:37;5.70;;;1.73;;
11761;SDS011;5938;47.098;15.474;2022-09-01T16:27:43;2.43;;;1.20;;
11761;SDS011;5938;47.098;15.474;2022-09-01T16:31:48;2.50;;;1.67;;
11761;SDS011;5938;47.098;15.474;2022-09-01T16:35:59;1.83;;;1.73;;
11761;SDS011;5938;47.098;15.474;2022-09-01T16:40:17;2.30;;;1.73;;
11761;SDS011;5938;47.098;15.474;2022-09-01T16:44:34;3.97;;;1.40;;
11761;SDS011;5938;47.098;15.474;2022-09-01T16:48:46;2.30;;;1.23;;
11761;SDS011;5938;47.098;15.474;2022-09-01T16:53:02;1.60;;;1.50;;
11761;SDS011;5938;47.098;15.474;2022-09-01T16:57:24;4.00;;;1.90;;
11761;SDS011;5938;47.098;15.474;2022-09-01T17:01:38;4.47;;;2.00;;
11761;SDS011;5938;47.098;15.474;2022-09-01T17:05:52;1.80;;;1.70;;
11761;SDS011;5938;47.098;15.474;2022-09-01T17:09:59;2.70;;;1.60;;
11761;SDS011;5938;47.098;15.474;2022-09-01T17:14:08;1.83;;;1.50;;
11761;SDS011;5938;47.098;15.474;2022-09-01T17:18:29;3.87;;;1.83;;
11761;SDS011;5938;47.098;15.474;2022-09-01T17:22:36;2.80;;;2.10;;
11761;SDS011;5938;47.098;15.474;2022-09-01T17:26:40;2.90;;;1.77;;
11761;SDS011;5938;47.098;15.474;2022-09-01T17:30:54;4.07;;;2.40;;
11761;SDS011;5938;47.098;15.474;2022-09-01T17:35:04;2.80;;;1.83;;
11761;SDS011;5938;47.098;15.474;2022-09-01T17:39:18;5.23;;;1.93;;
11761;SDS011;5938;47.098;15.474;2022-09-01T17:43:40;4.50;;;1.90;;
11761;SDS011;5938;47.098;15.474;2022-09-01T17:47:58;1.60;;;1.50;;
11761;SDS011;5938;47.098;15.474;2022-09-01T17:52:11;1.90;;;1.80;;
11761;SDS011;5938;47.098;15.474;2022-09-01T17:56:24;2.07;;;1.97;;
11761;SDS011;5938;47.098;15.474;2022-09-01T18:00:38;3.27;;;2.03;;
11761;SDS011;5938;47.098;15.474;2022-09-01T18:04:49;3.90;;;2.20;;
11761;SDS011;5938;47.098;15.474;2022-09-01T18:09:01;2.30;;;2.10;;
11761;SDS011;5938;47.098;15.474;2022-09-01T18:13:08;2.10;;;2.00;;
11761;SDS011;5938;47.098;15.474;2022-09-01T18:17:38;4.63;;;2.50;;
11761;SDS011;5938;47.098;15.474;2022-09-01T18:21:46;3.13;;;2.03;;
11761;SDS011;5938;47.098;15.474;2022-09-01T18:25:55;3.00;;;2.00;;
11761;SDS011;5938;47.098;15.474;2022-09-01T18:30:04;3.10;;;2.20;;
11761;SDS011;5938;47.098;15.474;2022-09-01T18:34:10;4.00;;;1.80;;
11761;SDS011;5938;47.098;15.474;2022-09-01T18:38:32;3.40;;;2.33;;
11761;SDS011;5938;47.098;15.474;2022-09-01T18:42:46;3.57;;;1.90;;
11761;SDS011;5938;47.098;15.474;2022-09-01T18:46:59;2.07;;;1.97;;
11761;SDS011;5938;47.098;15.474;2022-09-01T18:51:06;2.03;;;1.90;;
11761;SDS011;5938;47.098;15.474;2022-09-01T18:55:20;2.47;;;2.27;;
11761;SDS011;5938;47.098;15.474;2022-09-01T19:03:56;2.77;;;2.50;;
11761;SDS011;5938;47.098;15.474;2022-09-01T19:08:14;2.30;;;2.10;;
11761;SDS011;5938;47.098;15.474;2022-09-01T19:12:29;3.30;;;2.17;;
11761;SDS011;5938;47.098;15.474;2022-09-01T19:16:43;3.87;;;2.53;;
11761;SDS011;5938;47.098;15.474;2022-09-01T19:20:59;2.00;;;1.80;;
11761;SDS011;5938;47.098;15.474;2022-09-01T19:25:08;5.90;;;2.20;;
11761;SDS011;5938;47.098;15.474;2022-09-01T19:29:34;4.70;;;2.07;;
11761;SDS011;5938;47.098;15.474;2022-09-01T19:33:47;2.97;;;2.37;;
11761;SDS011;5938;47.098;15.474;2022-09-01T19:37:52;2.50;;;1.93;;
11761;SDS011;5938;47.098;15.474;2022-09-01T19:41:56;3.20;;;2.20;;
11761;SDS011;5938;47.098;15.474;2022-09-01T19:46:11;2.63;;;2.10;;
11761;SDS011;5938;47.098;15.474;2022-09-01T19:50:24;2.13;;;1.87;;
11761;SDS011;5938;47.098;15.474;2022-09-01T19:54:36;2.40;;;2.20;;
11761;SDS011;5938;47.098;15.474;2022-09-01T19:58:48;2.93;;;2.07;;
11761;SDS011;5938;47.098;15.474;2022-09-01T20:03:02;5.40;;;2.30;;
11761;SDS011;5938;47.098;15.474;2022-09-01T20:07:12;8.47;;;2.90;;
11761;SDS011;5938;47.098;15.474;2022-09-01T20:11:30;2.70;;;2.50;;
11761;SDS011;5938;47.098;15.474;2022-09-01T20:15:45;2.60;;;2.00;;
11761;SDS011;5938;47.098;15.474;2022-09-01T20:19:55;3.77;;;2.40;;
11761;SDS011;5938;47.098;15.474;2022-09-01T20:24:08;5.30;;;2.63;;
11761;SDS011;5938;47.098;15.474;2022-09-01T20:28:21;4.60;;;2.80;;
11761;SDS011;5938;47.098;15.474;2022-09-01T20:32:34;3.20;;;3.00;;
11761;SDS011;5938;47.098;15.474;2022-09-01T20:36:45;3.70;;;2.10;;
11761;SDS011;5938;47.098;15.474;2022-09-01T20:40:52;3.27;;;2.90;;
11761;SDS011;5938;47.098;15.474;2022-09-01T20:44:58;9.77;;;3.43;;
11761;SDS011;5938;47.098;15.474;2022-09-01T20:49:04;4.33;;;2.90;;
11761;SDS011;5938;47.098;15.474;2022-09-01T20:53:12;3.10;;;2.80;;
11761;SDS011;5938;47.098;15.474;2022-09-01T20:57:29;2.60;;;2.40;;
11761;SDS011;5938;47.098;15.474;2022-09-01T21:01:40;3.50;;;2.90;;
11761;SDS011;5938;47.098;15.474;2022-09-01T21:05:50;5.20;;;2.90;;
11761;SDS011;5938;47.098;15.474;2022-09-01T21:10:03;3.13;;;2.90;;
11761;SDS011;5938;47.098;15.474;2022-09-01T21:14:24;3.43;;;2.80;;
11761;SDS011;5938;47.098;15.474;2022-09-01T21:18:39;3.87;;;2.97;;
11761;SDS011;5938;47.098;15.474;2022-09-01T21:22:49;3.00;;;2.60;;
11761;SDS011;5938;47.098;15.474;2022-09-01T21:26:56;3.03;;;2.50;;
11761;SDS011;5938;47.098;15.474;2022-09-01T21:31:03;4.10;;;2.80;;
11761;SDS011;5938;47.098;15.474;2022-09-01T21:35:10;3.17;;;2.83;;
11761;SDS011;5938;47.098;15.474;2022-09-01T21:39:14;3.40;;;2.60;;
11761;SDS011;5938;47.098;15.474;2022-09-01T21:43:20;4.40;;;2.60;;
11761;SDS011;5938;47.098;15.474;2022-09-01T21:47:26;4.03;;;3.03;;
11761;SDS011;5938;47.098;15.474;2022-09-01T21:51:30;3.47;;;2.47;;
11761;SDS011;5938;47.098;15.474;2022-09-01T21:55:34;5.20;;;3.03;;
11761;SDS011;5938;47.098;15.474;2022-09-01T21:59:39;3.00;;;2.70;;
11761;SDS011;5938;47.098;15.474;2022-09-01T22:03:43;3.53;;;2.27;;
11761;SDS011;5938;47.098;15.474;2022-09-01T22:07:46;3.40;;;2.73;;
11761;SDS011;5938;47.098;15.474;2022-09-01T22:11:49;3.00;;;2.60;;
11761;SDS011;5938;47.098;15.474;2022-09-01T22:15:54;3.30;;;3.10;;
11761;SDS011;5938;47.098;15.474;2022-09-01T22:19:58;5.43;;;3.00;;
11761;SDS011;5938;47.098;15.474;2022-09-01T22:24:02;3.80;;;3.23;;
11761;SDS011;5938;47.098;15.474;2022-09-01T22:28:06;3.03;;;2.83;;
11761;SDS011;5938;47.098;15.474;2022-09-01T22:32:11;4.10;;;3.03;;
11761;SDS011;5938;47.098;15.474;2022-09-01T22:36:18;5.10;;;3.00;;
11761;SDS011;5938;47.098;15.474;2022-09-01T22:40:23;2.60;;;2.40;;
11761;SDS011;5938;47.098;15.474;2022-09-01T22:44:26;5.40;;;3.03;;
11761;SDS011;5938;47.098;15.474;2022-09-01T22:48:30;4.10;;;2.67;;
11761;SDS011;5938;47.098;15.474;2022-09-01T22:52:34;2.90;;;2.63;;
11761;SDS011;5938;47.098;15.474;2022-09-01T22:56:38;5.97;;;2.97;;
11761;SDS011;5938;47.098;15.474;2022-09-01T23:00:43;4.43;;;2.90;;
11761;SDS011;5938;47.098;15.474;2022-09-01T23:04:49;3.13;;;2.80;;
11761;SDS011;5938;47.098;15.474;2022-09-01T23:08:53;3.00;;;2.80;;
11761;SDS011;5938;47.098;15.474;2022-09-01T23:12:56;3.07;;;2.87;;
11761;SDS011;5938;47.098;15.474;2022-09-01T23:17:00;10.17;;;2.70;;
11761;SDS011;5938;47.098;15.474;2022-09-01T23:21:06;2.67;;;2.43;;
11761;SDS011;5938;47.098;15.474;2022-09-01T23:25:13;4.10;;;3.00;;
11761;SDS011;5938;47.098;15.474;2022-09-01T23:29:17;3.40;;;3.10;;
11761;SDS011;5938;47.098;15.474;2022-09-01T23:33:21;3.70;;;3.30;;
11761;SDS011;5938;47.098;15.474;2022-09-01T23:37:27;3.07;;;2.80;;
11761;SDS011;5938;47.098;15.474;2022-09-01T23:41:31;3.07;;;2.80;;
11761;SDS011;5938;47.098;15.474;2022-09-01T23:45:39;4.07;;;2.73;;
11761;SDS011;5938;47.098;15.474;2022-09-01T23:49:43;4.40;;;3.57;;
11761;SDS011;5938;47.098;15.474;2022-09-01T23:53:48;3.50;;;3.23;;
11761;SDS011;5938;47.098;15.474;2022-09-01T23:57:52;2.80;;;2.60;;
